createdAt,value
2019-05-23T00:03:34.506Z,6.10
2019-05-23T00:08:37.317Z,5.53
2019-05-23T00:13:56.753Z,5.63
2019-05-23T00:18:59.960Z,5.27
2019-05-23T00:24:03.321Z,5.30
2019-05-23T00:29:10.409Z,5.50
2019-05-23T00:34:13.932Z,5.50
2019-05-23T00:39:16.925Z,5.33
2019-05-23T00:44:19.299Z,5.23
2019-05-23T00:49:23.995Z,6.17
2019-05-23T00:54:26.543Z,6.03
2019-05-23T00:59:29.313Z,6.07
2019-05-23T01:04:33.125Z,7.00
2019-05-23T01:09:36.242Z,6.40
2019-05-23T01:14:38.849Z,6.57
2019-05-23T01:19:43.017Z,7.27
2019-05-23T01:24:47.608Z,7.00
2019-05-23T01:29:51.916Z,6.30
2019-05-23T01:34:56.550Z,6.80
2019-05-23T01:39:59.153Z,7.23
2019-05-23T01:45:02.076Z,6.87
2019-05-23T01:50:06.174Z,7.33
2019-05-23T01:55:09.218Z,7.23
2019-05-23T02:00:14.608Z,6.93
2019-05-23T02:05:17.917Z,7.80
2019-05-23T02:10:20.716Z,6.97
2019-05-23T02:15:30.786Z,6.70
2019-05-23T02:20:34.329Z,6.70
2019-05-23T02:25:36.375Z,7.23
2019-05-23T02:30:38.626Z,7.20
2019-05-23T02:35:40.771Z,7.07
2019-05-23T02:40:48.797Z,7.77
2019-05-23T02:45:54.960Z,7.57
2019-05-23T02:51:00.393Z,8.03
2019-05-23T02:56:08.118Z,6.87
2019-05-23T03:01:56.625Z,7.13
2019-05-23T03:07:00.751Z,6.93
2019-05-23T03:12:03.771Z,6.37
2019-05-23T03:17:11.470Z,6.53
2019-05-23T03:22:45.795Z,7.00
2019-05-23T03:27:48.569Z,6.70
2019-05-23T03:32:54.526Z,6.37
2019-05-23T03:37:58.320Z,7.40
2019-05-23T03:43:00.591Z,6.30
2019-05-23T03:48:05.436Z,6.67
2019-05-23T03:53:09.784Z,7.30
2019-05-23T03:58:13.815Z,6.87
2019-05-23T04:03:18.571Z,7.53
2019-05-23T04:08:21.748Z,8.30
2019-05-23T04:13:24.572Z,7.57
2019-05-23T04:18:26.859Z,8.00
2019-05-23T04:23:29.127Z,7.50
2019-05-23T04:28:31.481Z,9.33
2019-05-23T04:33:34.114Z,8.43
2019-05-23T04:38:36.762Z,9.20
2019-05-23T04:43:39.293Z,9.20
2019-05-23T04:48:42.259Z,8.93
2019-05-23T04:53:44.436Z,8.57
2019-05-23T04:58:47.272Z,8.13
2019-05-23T05:03:49.859Z,7.90
2019-05-23T05:08:54.120Z,9.30
2019-05-23T05:13:56.181Z,8.47
2019-05-23T05:18:58.286Z,7.63
2019-05-23T05:24:00.504Z,6.90
2019-05-23T05:29:02.613Z,7.50
2019-05-23T05:34:05.004Z,7.27
2019-05-23T05:39:08.681Z,7.20
2019-05-23T05:44:11.949Z,6.80
2019-05-23T05:49:14.526Z,6.15
2019-05-23T05:54:16.588Z,5.60
2019-05-23T05:59:18.646Z,5.67
2019-05-23T06:04:21.231Z,6.42
2019-05-23T06:09:27.926Z,5.83
2019-05-23T06:14:30.702Z,5.53
2019-05-23T06:19:33.079Z,5.20
2019-05-23T06:24:45.331Z,5.17
2019-05-23T06:29:39.041Z,5.90
2019-05-23T06:34:41.351Z,5.42
2019-05-23T06:39:43.439Z,5.15
2019-05-23T06:44:45.485Z,4.75
2019-05-23T06:49:47.518Z,5.00
2019-05-23T06:54:49.699Z,5.40
2019-05-23T06:59:51.795Z,4.50
2019-05-23T07:04:53.859Z,5.12
2019-05-23T07:09:56.913Z,5.05
2019-05-23T07:14:58.963Z,5.08
2019-05-23T07:20:01.498Z,4.72
2019-05-23T07:25:05.128Z,5.50
2019-05-23T07:30:11.485Z,6.15
2019-05-23T07:35:13.936Z,5.70
2019-05-23T07:40:17.059Z,5.20
2019-05-23T07:45:23.444Z,5.25
2019-05-23T07:50:25.770Z,5.03
2019-05-23T07:55:41.818Z,5.45
2019-05-23T08:00:55.953Z,6.05
2019-05-23T08:05:59.689Z,5.33
2019-05-23T08:11:02.098Z,5.75
2019-05-23T08:16:06.350Z,4.90
2019-05-23T08:21:10.902Z,5.35
2019-05-23T08:26:15.190Z,5.47
2019-05-23T08:31:18.150Z,6.00
2019-05-23T08:36:23.952Z,5.37
2019-05-23T08:41:32.071Z,6.08
2019-05-23T08:46:36.173Z,5.28
2019-05-23T08:51:40.215Z,4.95
2019-05-23T08:56:42.386Z,5.37
2019-05-23T09:01:44.729Z,5.65
2019-05-23T09:06:46.832Z,4.33
2019-05-23T09:11:48.930Z,4.92
2019-05-23T09:16:51.324Z,3.98
2019-05-23T09:21:57.764Z,5.12
2019-05-23T09:26:58.040Z,4.30
2019-05-23T09:32:00.466Z,3.80
2019-05-23T09:37:04.505Z,3.98
2019-05-23T09:42:06.515Z,3.90
2019-05-23T09:47:08.641Z,4.27
2019-05-23T09:52:12.426Z,3.85
2019-05-23T09:57:15.256Z,4.05
2019-05-23T10:02:18.573Z,5.30
2019-05-23T10:07:20.987Z,4.92
2019-05-23T10:12:23.084Z,4.33
2019-05-23T10:17:25.375Z,4.12
2019-05-23T10:22:27.721Z,4.85
2019-05-23T10:27:30.036Z,4.55
2019-05-23T10:32:32.256Z,4.17
2019-05-23T10:37:34.554Z,3.70
2019-05-23T10:42:37.119Z,4.00
2019-05-23T10:47:39.230Z,3.47
2019-05-23T10:52:41.560Z,3.33
2019-05-23T10:57:43.610Z,3.92
2019-05-23T11:02:46.180Z,3.33
2019-05-23T11:07:49.214Z,3.67
2019-05-23T11:12:51.313Z,2.80
2019-05-23T11:17:54.230Z,3.00
2019-05-23T11:22:56.410Z,2.65
2019-05-23T11:28:00.954Z,2.37
2019-05-23T11:33:03.231Z,3.40
2019-05-23T11:38:05.443Z,2.95
2019-05-23T11:43:07.642Z,3.98
2019-05-23T11:48:10.278Z,3.02
2019-05-23T11:53:12.683Z,3.00
2019-05-23T11:58:14.832Z,2.90
2019-05-23T12:03:17.491Z,2.60
2019-05-23T12:08:19.654Z,2.70
2019-05-23T12:13:21.864Z,2.80
2019-05-23T12:18:24.039Z,2.42
2019-05-23T12:23:26.146Z,2.72
2019-05-23T12:28:28.802Z,2.65
2019-05-23T12:33:30.898Z,2.98
2019-05-23T12:38:32.961Z,3.77
2019-05-23T12:43:35.046Z,2.87
2019-05-23T12:48:45.017Z,2.40
2019-05-23T12:53:47.285Z,2.47
2019-05-23T12:58:49.740Z,1.98
2019-05-23T13:03:52.224Z,2.60
2019-05-23T13:08:54.696Z,2.70
2019-05-23T13:13:56.764Z,3.60
2019-05-23T13:18:58.843Z,2.62
2019-05-23T13:24:01.080Z,2.35
2019-05-23T13:29:03.462Z,2.77
2019-05-23T13:34:05.591Z,3.87
2019-05-23T13:39:09.075Z,3.20
2019-05-23T13:44:29.681Z,4.08
2019-05-23T13:49:15.323Z,3.30
2019-05-23T13:54:18.480Z,2.67
2019-05-23T13:59:20.696Z,3.00
2019-05-23T14:04:23.319Z,2.35
2019-05-23T14:09:27.024Z,2.80
2019-05-23T14:14:29.112Z,2.62
2019-05-23T14:19:31.182Z,2.75
2019-05-23T14:24:37.454Z,2.67
2019-05-23T14:29:37.310Z,3.30
2019-05-23T14:34:39.369Z,4.25
2019-05-23T14:39:48.850Z,2.83
2019-05-23T14:44:51.647Z,2.75
2019-05-23T14:50:11.120Z,2.20
2019-05-23T14:55:13.940Z,2.00
2019-05-23T15:00:18.082Z,3.00
2019-05-23T15:05:20.670Z,2.33
2019-05-23T15:10:23.764Z,1.98
2019-05-23T15:15:25.986Z,2.30
2019-05-23T15:20:28.463Z,1.90
2019-05-23T15:25:30.576Z,1.85
2019-05-23T15:30:32.793Z,1.55
2019-05-23T15:35:35.043Z,2.30
2019-05-23T15:40:37.299Z,1.82
2019-05-23T15:45:39.823Z,1.93
2019-05-23T15:50:49.054Z,2.00
2019-05-23T15:56:26.642Z,2.40
2019-05-23T16:01:24.663Z,2.15
2019-05-23T16:06:28.227Z,1.90
2019-05-23T16:11:30.907Z,2.60
2019-05-23T16:16:33.938Z,2.17
2019-05-23T16:21:38.136Z,2.62
2019-05-23T16:26:40.955Z,2.30
2019-05-23T16:31:43.858Z,1.90
2019-05-23T16:36:46.285Z,2.40
2019-05-23T16:41:48.338Z,1.87
2019-05-23T16:46:50.451Z,2.10
2019-05-23T16:51:52.485Z,2.60
2019-05-23T16:57:04.775Z,1.50
2019-05-23T17:02:21.733Z,4.40
2019-05-23T17:07:45.234Z,1.40
2019-05-23T17:12:55.958Z,1.60
2019-05-23T17:18:10.890Z,1.30
2019-05-23T17:23:31.042Z,1.37
2019-05-23T17:28:40.832Z,1.33
2019-05-23T17:33:44.273Z,1.23
2019-05-23T17:38:48.862Z,1.13
2019-05-23T17:43:50.970Z,1.30
2019-05-23T17:48:53.129Z,2.53
2019-05-23T17:53:57.384Z,1.47
2019-05-23T17:58:59.482Z,1.00
2019-05-23T18:04:06.302Z,1.30
2019-05-23T18:09:09.067Z,1.47
2019-05-23T18:14:11.652Z,1.20
2019-05-23T18:19:17.153Z,0.97
2019-05-23T18:24:23.171Z,1.77
2019-05-23T18:29:26.203Z,1.10
2019-05-23T18:34:32.390Z,1.07
2019-05-23T18:39:34.700Z,1.03
2019-05-23T18:44:37.316Z,0.90
2019-05-23T18:49:39.477Z,1.23
2019-05-23T18:54:43.674Z,1.23
2019-05-23T18:59:46.496Z,3.30
2019-05-23T19:04:50.546Z,2.93
2019-05-23T19:09:53.190Z,3.00
2019-05-23T19:14:55.407Z,2.70
2019-05-23T19:19:57.938Z,2.37
2019-05-23T19:25:03.706Z,2.10
2019-05-23T19:30:07.707Z,1.60
2019-05-23T19:35:11.741Z,1.60
2019-05-23T19:40:15.143Z,1.20
2019-05-23T19:45:17.174Z,1.20
2019-05-23T19:50:21.491Z,1.70
2019-05-23T19:55:24.042Z,2.63
2019-05-23T20:00:32.163Z,2.80
2019-05-23T20:05:36.777Z,2.17
2019-05-23T20:10:39.541Z,2.20
2019-05-23T20:15:45.732Z,3.53
2019-05-23T20:20:46.118Z,2.87
2019-05-23T20:25:48.661Z,3.57
2019-05-23T20:30:55.034Z,4.13
2019-05-23T20:36:02.210Z,4.10
2019-05-23T20:41:24.091Z,4.50
2019-05-23T20:46:26.398Z,4.53
2019-05-23T20:51:29.224Z,4.93
2019-05-23T20:56:31.456Z,6.73
2019-05-23T21:01:37.537Z,7.70
2019-05-23T21:06:39.605Z,6.70
2019-05-23T21:11:41.653Z,6.10
2019-05-23T21:16:43.698Z,5.10
2019-05-23T21:21:45.753Z,4.07
2019-05-23T21:26:47.817Z,4.80
2019-05-23T21:31:49.927Z,3.23
2019-05-23T21:36:52.118Z,3.57
2019-05-23T21:41:54.223Z,3.57
2019-05-23T21:46:56.424Z,3.70
2019-05-23T21:51:58.554Z,2.93
2019-05-23T21:57:00.636Z,3.40
2019-05-23T22:02:15.685Z,3.70
2019-05-23T22:07:17.738Z,3.50
2019-05-23T22:12:19.810Z,3.43
2019-05-23T22:17:23.824Z,3.63
2019-05-23T22:22:26.365Z,3.20
2019-05-23T22:27:28.697Z,3.30
2019-05-23T22:32:32.667Z,3.33
2019-05-23T22:37:34.962Z,3.37
2019-05-23T22:42:37.961Z,4.07
2019-05-23T22:47:39.988Z,4.27
2019-05-23T22:52:42.000Z,3.60
2019-05-23T22:57:44.086Z,3.37
2019-05-23T23:02:46.357Z,4.17
2019-05-23T23:07:48.804Z,4.20
2019-05-23T23:12:51.081Z,4.00
2019-05-23T23:17:53.213Z,4.27
2019-05-23T23:22:55.242Z,3.63
2019-05-23T23:27:57.324Z,4.10
2019-05-23T23:32:59.386Z,4.20
2019-05-23T23:38:01.436Z,4.37
2019-05-23T23:43:03.472Z,4.20
2019-05-23T23:48:23.595Z,5.10
2019-05-23T23:53:43.880Z,4.10
2019-05-23T23:58:45.570Z,4.33
